Weather at Rockwall Municipal Airport

Public forecast

Using degrees Fahrenheit for public forecast. Weather courtesy of forecast.io.

Current aviation weather report (METAR) for Rockwall Municipal Airport

Retrieved UTC (0 seconds ago):

Closest aviation forecast (TAF) to Rockwall Municipal Airport

Closest forecast is Dallas Love Field, 21.6 nm (40.0 km) WSW. Retrieved 2021/01/28 06:22 UTC (1 hour ago):

TAF KDAL 280520Z 2806/2906 02004KT P6SM SCT250 FM281500 08004KT P6SM BKN250 FM281700 11004KT P6SM BKN250